Weather reports worldwide

Advertisment
Newcastle, United Kingdom (3245): temperature & dewpoint: 15.05.2019 12:00:00 - 21.05.2019 12:00:00 (BST)Newcastle, United Kingdom (3245): wind speed: 15.05.2019 12:00:00 - 21.05.2019 12:00:00 (BST)Newcastle, United Kingdom (3245): wind direction: 15.05.2019 12:00:00 - 21.05.2019 12:00:00 (BST)Newcastle, United Kingdom (3245): visibility: 15.05.2019 12:00:00 - 21.05.2019 12:00:00 (BST)
Date & Time tt [°C] td [°C] ff [km/h] ff [kn] dd vv [km]
21.05.2019 12:00:00 13,0 9,0 18 10 NNW 10
21.05.2019 11:00:00 13,0 10,0 9 5 NNW 10
21.05.2019 10:00:00 12,0 9,0 15 8 WNW 10
21.05.2019 09:00:00 - - - - - -
21.05.2019 08:00:00 10,0 8,0 11 6 W 10
21.05.2019 07:00:00 8,0 8,0 21 11 W 10
21.05.2019 06:00:00 7,0 7,0 16 9 W 10
21.05.2019 05:00:00 7,0 7,0 18 10 W 10
21.05.2019 04:00:00 7,0 7,0 16 9 W 10
21.05.2019 03:00:00 7,0 7,0 11 6 WSW 10
21.05.2019 02:00:00 7,0 6,0 5 3 - 10
21.05.2019 01:00:00 7,0 7,0 8 4 WSW 10
21.05.2019 00:00:00 8,0 8,0 5 3 WSW 10
20.05.2019 23:00:00 9,0 7,0 8 4 W 10
20.05.2019 22:00:00 10,0 8,0 8 4 W 10
20.05.2019 21:00:00 13,0 10,0 5 3 - 10
20.05.2019 20:00:00 14,0 10,0 2 1 ENE 10
20.05.2019 19:00:00 14,0 10,0 4 2 E 10
20.05.2019 18:00:00 14,0 10,0 2 1 SSW 10
20.05.2019 17:00:00 13,0 10,0 5 3 - 10
20.05.2019 16:00:00 13,0 10,0 13 7 ENE 10
20.05.2019 15:00:00 14,0 10,0 11 6 E 10
20.05.2019 14:00:00 14,0 10,0 16 9 ENE 10
20.05.2019 13:00:00 18,0 9,0 8 4 WSW 10
20.05.2019 12:00:00 17,0 9,0 4 2 - 10
20.05.2019 11:00:00 14,0 8,0 8 4 NNW 10
20.05.2019 10:00:00 13,0 9,0 9 5 WNW 10
20.05.2019 09:00:00 12,0 10,0 9 5 W 10
20.05.2019 08:00:00 11,0 11,0 11 6 W 10
20.05.2019 07:00:00 10,0 10,0 11 6 W 10
20.05.2019 06:00:00 9,0 9,0 5 3 WSW 10
20.05.2019 05:00:00 9,0 9,0 8 4 WSW 10
20.05.2019 04:00:00 8,0 8,0 5 3 - 10
20.05.2019 03:00:00 9,0 9,0 8 4 WSW 10
20.05.2019 02:00:00 9,0 9,0 5 3 WSW 10
20.05.2019 01:00:00 9,0 9,0 5 3 SW 10
20.05.2019 00:00:00 10,0 9,0 9 5 WSW 10
19.05.2019 23:00:00 10,0 9,0 8 4 WSW 10
19.05.2019 22:00:00 11,0 9,0 13 7 W 10
19.05.2019 21:00:00 12,0 9,0 8 4 SW 10
19.05.2019 20:00:00 13,0 10,0 4 2 SSW 10
19.05.2019 19:00:00 13,0 9,0 4 2 SW 10
19.05.2019 18:00:00 14,0 9,0 4 2 S 10
19.05.2019 17:00:00 14,0 9,0 5 3 - 10
19.05.2019 16:00:00 13,0 9,0 15 8 WSW 10
19.05.2019 15:00:00 15,0 9,0 4 2 - 10
19.05.2019 14:00:00 13,0 9,0 8 4 WNW 10
19.05.2019 13:00:00 15,0 9,0 8 4 NW 10
19.05.2019 12:00:00 14,0 9,0 8 4 W 10
19.05.2019 11:00:00 14,0 8,0 9 5 W 10
19.05.2019 10:00:00 14,0 8,0 8 4 S 10
19.05.2019 09:00:00 12,0 9,0 5 3 - 10
19.05.2019 08:00:00 11,0 10,0 8 4 W 10
19.05.2019 07:00:00 8,0 8,0 5 3 - 10
19.05.2019 06:00:00 7,0 7,0 8 4 WSW 10
19.05.2019 05:00:00 8,0 8,0 5 3 WSW 7
19.05.2019 04:00:00 8,0 8,0 2 1 - 3,0
19.05.2019 03:00:00 9,0 9,0 4 2 NW 3,0
19.05.2019 02:00:00 9,0 9,0 0 0 N 5
19.05.2019 01:00:00 10,0 10,0 2 1 - 7
19.05.2019 00:00:00 9,0 9,0 2 1 - 7
18.05.2019 23:00:00 10,0 10,0 4 2 - 9
18.05.2019 22:00:00 10,0 10,0 5 3 E 7
18.05.2019 21:00:00 10,0 10,0 4 2 E 10
18.05.2019 20:00:00 11,0 10,0 4 2 E 10
18.05.2019 19:00:00 11,0 10,0 8 4 ESE 10
18.05.2019 18:00:00 12,0 11,0 8 4 E 10
18.05.2019 17:00:00 12,0 11,0 4 2 E 10
18.05.2019 16:00:00 12,0 11,0 2 1 - 10
18.05.2019 15:00:00 11,0 11,0 4 2 - 10
18.05.2019 14:00:00 11,0 11,0 8 4 ESE 10
18.05.2019 13:00:00 11,0 10,0 5 3 - 10
18.05.2019 12:00:00 11,0 10,0 2 1 - 10
18.05.2019 11:00:00 10,0 10,0 4 2 - 10
18.05.2019 10:00:00 11,0 11,0 4 2 - 10
18.05.2019 09:00:00 10,0 10,0 4 2 - 7
18.05.2019 08:00:00 9,0 9,0 2 1 - 10
18.05.2019 07:00:00 9,0 9,0 8 4 NW 7
18.05.2019 06:00:00 9,0 9,0 8 4 N 7
18.05.2019 05:00:00 9,0 9,0 8 4 NNW 1,1
18.05.2019 04:00:00 9,0 9,0 8 4 N 8
18.05.2019 03:00:00 9,0 9,0 5 3 N 10
18.05.2019 02:00:00 9,0 9,0 9 5 NNE 10
18.05.2019 01:00:00 9,0 9,0 11 6 NE 10
18.05.2019 00:00:00 9,0 9,0 11 6 NE 9
17.05.2019 23:00:00 9,0 9,0 13 7 NE 10
17.05.2019 22:00:00 9,0 9,0 15 8 NNE 5
17.05.2019 21:00:00 9,0 9,0 15 8 NNE 6
17.05.2019 20:00:00 10,0 8,0 18 10 NE 10
17.05.2019 19:00:00 11,0 8,0 22 12 NE 10
17.05.2019 18:00:00 12,0 8,0 21 11 NE 10
17.05.2019 17:00:00 13,0 9,0 22 12 NE 10
17.05.2019 16:00:00 14,0 9,0 24 13 NE 10
17.05.2019 15:00:00 13,0 9,0 24 13 NNE 10
17.05.2019 14:00:00 15,0 9,0 22 12 NE 10
17.05.2019 13:00:00 14,0 9,0 21 11 N 10
17.05.2019 12:00:00 14,0 9,0 18 10 NNE 10
17.05.2019 11:00:00 13,0 9,0 21 11 NNE 10
17.05.2019 10:00:00 14,0 9,0 21 11 NE 10
17.05.2019 09:00:00 13,0 9,0 21 11 NNE 10
17.05.2019 08:00:00 11,0 9,0 16 9 N 10
17.05.2019 07:00:00 9,0 9,0 13 7 N 8
17.05.2019 06:00:00 8,0 8,0 9 5 NNE 8
17.05.2019 05:00:00 8,0 8,0 13 7 NNE 7
17.05.2019 04:00:00 8,0 8,0 11 6 N 10
17.05.2019 03:00:00 - - - - - -
17.05.2019 02:00:00 7,0 7,0 5 3 NNW 10
17.05.2019 01:00:00 7,0 7,0 8 4 NNW 10
17.05.2019 00:00:00 7,0 7,0 5 3 N 10
16.05.2019 23:00:00 9,0 8,0 4 2 ENE 10
16.05.2019 22:00:00 9,0 7,0 9 5 ENE 10
16.05.2019 21:00:00 10,0 5,0 11 6 E 10
16.05.2019 20:00:00 11,0 5,0 16 9 E 10
16.05.2019 19:00:00 12,0 5,0 16 9 E 10
16.05.2019 18:00:00 12,0 6,0 21 11 E 10
16.05.2019 17:00:00 13,0 7,0 21 11 E 10
16.05.2019 16:00:00 13,0 6,0 21 11 E 10
16.05.2019 15:00:00 13,0 5,0 18 10 ESE 10
16.05.2019 14:00:00 14,0 6,0 21 11 ESE 10
16.05.2019 13:00:00 14,0 6,0 18 10 E 10
16.05.2019 12:00:00 13,0 6,0 15 8 ESE 10
16.05.2019 11:00:00 13,0 7,0 13 7 ESE 10
16.05.2019 10:00:00 13,0 6,0 11 6 ESE 10
16.05.2019 09:00:00 12,0 6,0 8 4 - 10
16.05.2019 08:00:00 10,0 7,0 8 4 SE 10
16.05.2019 07:00:00 7,0 6,0 5 3 - 10
16.05.2019 06:00:00 4,0 4,0 0 0 N 10
16.05.2019 05:00:00 4,0 4,0 2 1 ESE 10
16.05.2019 04:00:00 5,0 4,0 4 2 - 10
16.05.2019 03:00:00 7,0 5,0 5 3 - 10
16.05.2019 02:00:00 6,0 5,0 5 3 - 10
16.05.2019 01:00:00 8,0 6,0 4 2 - 10
16.05.2019 00:00:00 9,0 7,0 8 4 ESE 10
15.05.2019 23:00:00 10,0 7,0 9 5 ESE 10
15.05.2019 22:00:00 10,0 6,0 11 6 ESE 10
15.05.2019 21:00:00 13,0 9,0 8 4 SSW 10
15.05.2019 20:00:00 14,0 6,0 13 7 SE 10
15.05.2019 19:00:00 17,0 8,0 13 7 ESE 10
15.05.2019 18:00:00 15,0 9,0 8 4 SSW 10
15.05.2019 17:00:00 15,0 9,0 11 6 SW 10
15.05.2019 16:00:00 20,0 11,0 16 9 ESE 10
15.05.2019 15:00:00 19,0 11,0 15 8 ESE 10
15.05.2019 14:00:00 21,0 10,0 11 6 NE 10
15.05.2019 13:00:00 19,0 11,0 15 8 ENE 10
15.05.2019 12:00:00 22,0 9,0 2 1 - 10

tt = temperature
td = dewpoint
ff = wind speed
dd = wind direction
vv = visibility

Next stations